Grace, Mississippi
Current Conditions -  °F | °C
As of 8:53 PM on Saturday 22 Nov 2014 (Local Time) from KGLH Reporting Station
Clear Clear  
Wind Chill: 59°   Ceiling: Unl
Heat Index: 59°   Visibility: 10mi
Dew Point: 50°   Wind: 10mph
Humidity: 72%   Direction: 130°SE
Pressure: 29.96"   Gusts: NA
Location:  33°N, 90.96°W
Report Text: KGLH 230253Z AUTO 13009KT 10SM CLR 15/10 A2996 RMK AO2 SLP153 T01500100 58020
Loading
Personal Weather Stations






























Interactive Weather Map New forecast layout! Learn more

10-Day Weather Forecast

Advertisements
Track Severe Weather on mobile